Overview Statistics Trail Chart Weather Telemetry Raw packets
 

This is the latest recevied weather packets stored in our database for station/object KQ4KX. If no packets are shown the sender has not sent any weather packets the latest 10 day(s).

<< 37 38 39 40 41 42 43 >>
Time Temp. Humidity Pressure Rain* Wind** Luminosity Snow
1788386254 27.22° C 92% 1013.9 hPa 0 mm - - -
1788385954 27.78° C 92% 1013.6 hPa 0 mm - - -
1788385881 27.78° C 90% 1013.7 hPa 0 mm - - -
1788385653 27.78° C 90% 1013.7 hPa 0 mm - - -
1788385354 27.78° C 90% 1013.8 hPa 0 mm - - -
1788384453 27.78° C 91% 1013.3 hPa 0 mm - - -
1788384208 27.78° C 90% 1013.4 hPa 0 mm - - -
1788384123 27.78° C 90% 1013.4 hPa 0 mm - - -
1788383463 27.22° C 91% 1013.9 hPa 0 mm - - -
1788382203 27.78° C 85% 1014.3 hPa 0 mm - - -
1788382020 27.78° C 85% 1014 hPa 0 mm - - -
1788381873 27.78° C 85% 1014 hPa 0 mm - - -
1788381418 28.89° C 82% 1013.6 hPa 0 mm - - -
1788381214 28.89° C 82% 1013.6 hPa 0 mm - - -
1788381077 29.44° C 83% 1013.9 hPa 0 mm - - -
1788380913 29.44° C 83% 1013.9 hPa 0 mm - - -
1788380613 30° C 83% 1013.9 hPa 0 mm - - -
1788379811 31.11° C 79% 1013.6 hPa 0 mm - - -
1788379654 31.11° C 79% 1013.6 hPa 0 mm - - -
1788378993 32.78° C 75% 1013.6 hPa 0 mm - - -
1788378877 33.89° C 71% 1013.6 hPa 0 mm - - -
1788378693 33.89° C 71% 1013.6 hPa 0 mm - - -
1788378506 34.44° C 71% 1013.6 hPa 0 mm - - -
1788378393 34.44° C 71% 1013.6 hPa 0 mm - - -
1788378093 33.89° C 72% 1013.6 hPa 0 mm - - -

* Rain latest hour (hover to see other rain measurements)
** Current wind speed in m/s (hover to see current wind gust speed)